Time;durP1;ratioP1;P1;durP2;ratioP2;P2;SDS_P1;SDS_P2;PMS_P1;PMS_P2;Temp;Humidity;BMP_temperature;BMP_pressure;BME280_temperature;BME280_humidity;BME280_pressure;Samples;Min_cycle;Max_cycle;Signal;HPM_P1;HPM_P2
2022/09/18 00:00:06;;;;;;;10.53;4.33;;;10.10;99.90;9.40;98896;;;;578798;245;23993;-84
2022/09/18 00:02:32;;;;;;;6.10;3.37;;;10.00;99.90;9.30;98895;;;;575774;245;24082;-82
2022/09/18 00:05:01;;;;;;;5.50;3.53;;;9.90;99.90;9.30;98899;;;;578900;244;23978;-83
2022/09/18 00:07:29;;;;;;;4.73;4.10;;;9.90;99.90;9.20;98900;;;;575010;245;24030;-82
2022/09/18 00:09:58;;;;;;;6.47;3.90;;;9.80;99.90;9.20;98897;;;;574532;245;24057;-84
2022/09/18 00:12:26;;;;;;;17.93;3.60;;;9.80;99.90;9.20;98897;;;;579072;245;23977;-82
2022/09/18 00:14:54;;;;;;;7.67;3.97;;;9.80;99.90;9.10;98893;;;;579190;245;24023;-83
2022/09/18 00:17:22;;;;;;;2.90;2.70;;;9.70;99.90;9.10;98897;;;;575305;244;23967;-82
2022/09/18 00:19:51;;;;;;;6.13;3.70;;;9.70;99.90;9.10;98897;;;;578795;245;23964;-83
2022/09/18 00:22:18;;;;;;;6.50;3.23;;;9.70;99.90;9.10;98887;;;;578656;245;24011;-83
2022/09/18 00:24:47;;;;;;;10.30;2.80;;;9.60;99.90;9.10;98898;;;;579258;244;24048;-82
2022/09/18 00:27:15;;;;;;;9.27;4.60;;;9.60;99.90;9.00;98891;;;;575446;244;34252;-83
2022/09/18 00:29:47;;;;;;;6.57;3.27;;;9.60;99.90;9.00;98890;;;;580298;244;24041;-81
2022/09/18 00:32:13;;;;;;;7.55;4.72;;;9.60;99.90;8.90;98888;;;;570620;244;34347;-83
2022/09/18 00:34:41;;;;;;;9.67;3.43;;;9.60;99.90;8.90;98885;;;;579249;244;24061;-82
2022/09/18 00:37:09;;;;;;;5.23;3.37;;;9.50;99.90;8.90;98875;;;;578924;245;23987;-83
2022/09/18 00:39:37;;;;;;;6.00;2.77;;;9.50;99.90;8.90;98870;;;;579382;244;23980;-83
2022/09/18 00:42:05;;;;;;;3.70;2.97;;;9.50;99.90;8.90;98877;;;;578992;245;23990;-83
2022/09/18 00:44:38;;;;;;;7.87;3.33;;;9.50;99.90;8.90;98878;;;;578632;245;23962;-85
2022/09/18 00:47:09;;;;;;;7.43;3.00;;;9.50;99.90;8.80;98878;;;;576694;245;23987;-84
2022/09/18 00:49:47;;;;;;;5.27;2.80;;;9.40;99.90;8.70;98879;;;;574604;245;24024;-83
2022/09/18 00:52:16;;;;;;;6.67;3.33;;;9.30;99.90;8.70;98881;;;;578576;245;24106;-85
2022/09/18 00:54:49;;;;;;;6.73;2.93;;;9.30;99.90;8.60;98877;;;;578634;245;23981;-83
2022/09/18 00:57:17;;;;;;;9.03;2.53;;;9.30;99.90;8.60;98879;;;;578817;245;24012;-84
2022/09/18 00:59:45;;;;;;;11.47;3.07;;;9.20;99.90;8.60;98877;;;;578665;245;24049;-83
2022/09/18 01:02:13;;;;;;;5.40;2.67;;;9.20;99.90;8.50;98877;;;;578567;245;23991;-84
2022/09/18 01:04:41;;;;;;;2.80;2.60;;;9.10;99.90;8.50;98883;;;;578305;245;24021;-84
2022/09/18 01:07:45;;;;;;;4.40;2.50;;;9.10;99.90;8.50;98868;;;;578606;245;23972;-83
2022/09/18 01:10:13;;;;;;;5.57;2.90;;;9.10;99.90;8.50;98875;;;;577157;245;23982;-83
2022/09/18 01:12:56;;;;;;;3.37;2.60;;;9.10;99.90;8.50;98872;;;;578040;244;23972;-82
2022/09/18 01:15:40;;;;;;;5.40;2.90;;;9.10;99.90;8.60;98882;;;;587088;243;25174;-83
2022/09/18 01:18:27;;;;;;;5.57;2.93;;;9.20;99.90;8.70;98883;;;;581644;245;24027;-83
2022/09/18 01:21:20;;;;;;;6.53;3.10;;;9.30;99.90;8.90;98885;;;;579074;244;24015;-84
2022/09/18 01:24:02;;;;;;;4.30;3.03;;;9.50;99.90;9.10;98879;;;;577380;244;24022;-83
2022/09/18 01:26:55;;;;;;;8.77;3.17;;;9.60;99.90;9.20;98885;;;;578137;245;23992;-85
2022/09/18 01:29:47;;;;;;;3.67;3.03;;;9.70;99.90;9.30;98886;;;;578373;245;23974;-85
2022/09/18 01:32:21;;;;;;;4.97;3.40;;;9.80;99.90;9.40;98883;;;;578853;244;24008;-84
2022/09/18 01:34:49;;;;;;;3.47;3.17;;;9.90;99.90;9.50;98882;;;;579296;244;23966;-84
2022/09/18 01:37:17;;;;;;;3.47;3.07;;;10.00;99.90;9.60;98883;;;;588129;243;24199;-83
2022/09/18 01:40:18;;;;;;;5.63;3.47;;;10.10;99.90;9.60;98878;;;;579283;243;24009;-86
2022/09/18 01:42:46;;;;;;;4.13;3.73;;;10.20;99.90;9.70;98883;;;;572527;244;23993;-85
2022/09/18 01:45:17;;;;;;;8.83;3.70;;;10.30;99.90;9.70;98883;;;;579089;245;23991;-83
2022/09/18 01:47:45;;;;;;;5.63;3.57;;;10.30;99.90;9.80;98877;;;;578357;245;23982;-82
2022/09/18 01:50:13;;;;;;;11.40;6.17;;;10.40;99.90;9.80;98883;;;;573804;245;45077;-84
2022/09/18 01:52:40;;;;;;;8.57;4.33;;;10.40;99.90;9.90;98895;;;;578683;245;23991;-82
2022/09/18 01:55:11;;;;;;;6.27;3.87;;;10.40;99.90;9.90;98893;;;;578835;245;25076;-82
2022/09/18 01:57:57;;;;;;;8.20;3.97;;;10.50;99.90;10.00;98895;;;;578841;245;24008;-82
2022/09/18 02:00:27;;;;;;;8.40;3.77;;;10.50;99.90;10.00;98887;;;;570102;246;24107;-82
2022/09/18 02:03:05;;;;;;;7.63;4.07;;;10.50;99.90;10.00;98887;;;;565644;250;24091;-81
2022/09/18 02:05:39;;;;;;;5.87;3.43;;;10.60;99.90;10.00;98888;;;;568098;249;24116;-83
2022/09/18 02:08:16;;;;;;;4.57;3.93;;;10.60;99.90;10.00;98889;;;;589703;242;23971;-82
2022/09/18 02:10:50;;;;;;;9.03;4.13;;;10.60;99.90;10.10;98881;;;;580770;244;23992;-82
2022/09/18 02:13:17;;;;;;;3.50;3.20;;;10.60;99.90;10.10;98886;;;;579638;244;23991;-82
2022/09/18 02:15:46;;;;;;;6.37;3.73;;;10.60;99.90;10.10;98885;;;;580194;244;24032;-81
2022/09/18 02:18:15;;;;;;;6.67;3.83;;;10.60;99.90;10.10;98889;;;;579786;244;24074;-82
2022/09/18 02:20:42;;;;;;;8.07;3.47;;;10.60;99.90;10.10;98891;;;;580495;244;24026;-83
2022/09/18 02:23:15;;;;;;;6.57;4.17;;;10.60;99.90;10.10;98883;;;;580304;244;24040;-82
2022/09/18 02:25:43;;;;;;;6.00;3.90;;;10.60;99.90;10.10;98892;;;;579296;244;23996;-83
2022/09/18 02:28:11;;;;;;;6.13;3.23;;;10.60;99.90;10.10;98897;;;;578359;245;24015;-82
2022/09/18 02:30:39;;;;;;;5.30;3.90;;;10.60;99.90;10.10;98887;;;;578367;245;25080;-83
2022/09/18 02:33:34;;;;;;;6.67;3.87;;;10.60;99.90;10.10;98888;;;;581539;245;24027;-84
2022/09/18 02:36:48;;;;;;;6.87;3.63;;;10.70;99.90;10.10;98890;;;;578360;244;24013;-82
2022/09/18 02:40:02;;;;;;;4.00;3.40;;;10.70;99.90;10.10;98888;;;;578403;244;24005;-84
2022/09/18 02:42:38;;;;;;;3.10;2.87;;;10.60;99.90;10.10;98883;;;;578352;245;23968;-83
2022/09/18 02:45:30;;;;;;;3.17;2.77;;;10.60;99.90;10.00;98885;;;;587196;244;23982;-83
2022/09/18 02:48:15;;;;;;;7.23;3.73;;;10.60;99.90;10.00;98889;;;;580734;244;23982;-85
2022/09/18 02:50:46;;;;;;;3.50;3.10;;;10.60;99.90;10.00;98882;;;;580518;244;23985;-82
2022/09/18 02:53:45;;;;;;;8.50;3.90;;;10.50;99.90;10.10;98893;;;;587731;244;24002;-83
2022/09/18 02:56:20;;;;;;;6.73;3.37;;;10.60;99.90;10.10;98883;;;;580180;245;24016;-83
2022/09/18 02:58:55;;;;;;;4.57;3.53;;;10.60;99.90;10.10;98886;;;;578473;244;24044;-82
2022/09/18 03:01:30;;;;;;;4.00;3.13;;;10.60;99.90;10.00;98874;;;;579550;244;24061;-84
2022/09/18 03:03:55;;;;;;;5.57;3.70;;;10.60;99.90;10.10;98875;;;;582206;245;23976;-84
2022/09/18 03:06:23;;;;;;;8.17;3.53;;;10.60;99.90;10.00;98866;;;;578890;245;23972;-86
2022/09/18 03:08:51;;;;;;;4.67;3.67;;;10.60;99.90;10.00;98872;;;;579245;245;24037;-84
2022/09/18 03:11:19;;;;;;;4.77;3.20;;;10.50;99.90;10.00;98879;;;;581631;245;23980;-86
2022/09/18 03:13:46;;;;;;;6.83;3.30;;;10.50;99.90;9.90;98884;;;;581757;245;23971;-84
2022/09/18 03:16:14;;;;;;;4.60;3.80;;;10.40;99.90;9.90;98876;;;;578913;245;24029;-85
2022/09/18 03:18:42;;;;;;;4.20;3.17;;;10.40;99.90;9.80;98863;;;;578862;245;23983;-86
2022/09/18 03:21:10;;;;;;;3.97;3.50;;;10.40;99.90;9.80;98865;;;;584526;245;23990;-85
2022/09/18 03:23:38;;;;;;;3.97;3.37;;;10.40;99.90;9.80;98863;;;;578855;245;23992;-85
2022/09/18 03:26:06;;;;;;;4.47;3.70;;;10.30;99.90;9.70;98863;;;;578660;245;24027;-86
2022/09/18 03:28:34;;;;;;;20.73;10.83;;;10.30;99.90;9.70;98874;;;;578670;245;23988;-84
2022/09/18 03:31:02;;;;;;;127.83;59.13;;;10.20;99.90;9.70;98867;;;;574594;245;25066;-85
2022/09/18 03:33:30;;;;;;;261.40;132.07;;;10.20;99.90;9.70;98868;;;;574581;245;23981;-86
2022/09/18 03:35:58;;;;;;;349.43;197.97;;;10.20;99.90;9.60;98866;;;;577088;245;24006;-85
2022/09/18 03:38:26;;;;;;;463.90;253.10;;;10.20;99.90;9.60;98866;;;;576991;245;24028;-87
2022/09/18 03:40:53;;;;;;;409.43;221.67;;;10.20;99.90;9.60;98861;;;;576981;245;24023;-85
2022/09/18 03:43:21;;;;;;;501.50;255.83;;;10.10;99.90;9.50;98858;;;;576884;245;24022;-85
2022/09/18 03:45:49;;;;;;;647.70;360.43;;;10.10;99.90;9.50;98857;;;;577080;245;24017;-86
2022/09/18 03:48:20;;;;;;;663.67;365.27;;;10.00;99.90;9.50;98864;;;;576737;245;24010;-86
2022/09/18 03:50:48;;;;;;;641.03;333.17;;;10.00;99.90;9.40;98864;;;;561890;250;24168;-86
2022/09/18 03:53:16;;;;;;;376.27;169.57;;;10.00;99.90;9.40;98871;;;;566730;250;24131;-85
2022/09/18 03:55:45;;;;;;;245.43;107.93;;;10.00;99.90;9.40;98857;;;;551073;256;24102;-85
2022/09/18 03:58:12;;;;;;;142.40;64.07;;;10.00;99.90;9.40;98864;;;;552476;254;24104;-86
2022/09/18 04:00:40;;;;;;;96.50;45.77;;;10.00;99.90;9.40;98867;;;;555411;254;24171;-86
2022/09/18 04:03:08;;;;;;;64.83;37.60;;;10.00;99.90;9.40;98872;;;;553628;253;24165;-87
2022/09/18 04:05:36;;;;;;;58.27;36.33;;;10.00;99.90;9.40;98870;;;;579786;243;23981;-85
2022/09/18 04:08:07;;;;;;;50.17;29.27;;;10.00;99.90;9.50;98864;;;;579866;243;24006;-81
2022/09/18 04:10:34;;;;;;;29.63;18.87;;;10.00;99.90;9.50;98873;;;;579090;244;24063;-86
2022/09/18 04:13:02;;;;;;;114.90;62.90;;;10.00;99.90;9.50;98875;;;;579479;244;24015;-85
2022/09/18 04:15:31;;;;;;;162.47;94.90;;;10.00;99.90;9.50;98876;;;;580078;244;23980;-87
2022/09/18 04:17:59;;;;;;;155.57;93.20;;;10.00;99.90;9.50;98890;;;;579933;244;24006;-85
2022/09/18 04:20:27;;;;;;;111.07;61.07;;;10.00;99.90;9.50;98883;;;;575627;245;23992;-86
2022/09/18 04:22:59;;;;;;;68.67;38.37;;;10.00;99.90;9.50;98877;;;;574885;245;24011;-83
2022/09/18 04:25:23;;;;;;;48.60;28.37;;;10.00;99.90;9.40;98893;;;;574477;245;24013;-84
2022/09/18 04:27:51;;;;;;;38.83;20.97;;;10.00;99.90;9.40;98882;;;;574893;245;24027;-84
2022/09/18 04:30:19;;;;;;;29.37;16.97;;;10.00;99.90;9.40;98888;;;;574860;245;24002;-84
2022/09/18 04:32:48;;;;;;;19.33;12.23;;;9.90;99.90;9.40;98891;;;;574845;245;24008;-85
2022/09/18 04:35:17;;;;;;;15.03;10.30;;;9.90;99.90;9.40;98889;;;;578871;245;23998;-85
2022/09/18 04:37:44;;;;;;;21.63;10.17;;;9.90;99.90;9.40;98897;;;;578609;245;24007;-84
2022/09/18 04:40:12;;;;;;;14.63;8.47;;;10.00;99.90;9.50;98888;;;;578621;245;24039;-85
2022/09/18 04:42:40;;;;;;;11.57;7.77;;;10.00;99.90;9.50;98892;;;;578674;245;23977;-86
2022/09/18 04:45:12;;;;;;;7.23;5.13;;;10.10;99.90;9.60;98903;;;;578738;245;24010;-85
2022/09/18 04:47:39;;;;;;;8.57;4.87;;;10.10;99.90;9.70;98904;;;;578006;245;24009;-86
2022/09/18 04:50:07;;;;;;;7.87;4.87;;;10.20;99.90;9.70;98907;;;;578349;245;24021;-85
2022/09/18 04:52:32;;;;;;;5.60;4.27;;;10.20;99.90;9.80;98910;;;;578462;245;23993;-84
2022/09/18 04:55:00;;;;;;;7.10;4.23;;;10.30;99.90;9.80;98902;;;;578635;245;23968;-86
2022/09/18 04:57:28;;;;;;;4.97;3.87;;;10.40;99.90;9.90;98916;;;;578636;245;23987;-85
2022/09/18 04:59:56;;;;;;;5.57;4.30;;;10.50;99.90;10.00;98912;;;;578683;245;24004;-84
2022/09/18 05:02:24;;;;;;;4.13;3.73;;;10.50;99.90;10.00;98923;;;;578486;245;24096;-84
2022/09/18 05:04:52;;;;;;;5.40;3.60;;;10.60;99.90;10.10;98919;;;;578227;245;23972;-83
2022/09/18 05:07:20;;;;;;;4.17;3.67;;;10.60;99.90;10.10;98917;;;;578169;245;24006;-85
2022/09/18 05:09:51;;;;;;;5.00;3.90;;;10.60;99.90;10.10;98917;;;;576910;245;23987;-84
2022/09/18 05:12:16;;;;;;;4.37;3.40;;;10.60;99.90;10.10;98920;;;;579351;244;24017;-84
2022/09/18 05:14:44;;;;;;;5.83;3.37;;;10.70;99.90;10.20;98917;;;;582660;244;24016;-82
2022/09/18 05:17:12;;;;;;;4.43;3.70;;;10.80;99.90;10.30;98922;;;;581848;244;24019;-84
2022/09/18 05:19:40;;;;;;;4.60;3.67;;;10.80;99.90;10.30;98926;;;;579182;244;23962;-85
2022/09/18 05:22:08;;;;;;;4.67;4.13;;;10.90;99.90;10.40;98914;;;;578923;245;23996;-84
2022/09/18 05:24:36;;;;;;;7.13;4.50;;;10.90;99.90;10.50;98924;;;;578984;245;24005;-83
2022/09/18 05:27:07;;;;;;;7.30;4.50;;;11.00;99.90;10.50;98916;;;;578974;244;24045;-85
2022/09/18 05:29:32;;;;;;;4.70;3.93;;;11.10;99.90;10.60;98920;;;;587977;243;24004;-85
2022/09/18 05:32:00;;;;;;;5.10;3.87;;;11.10;99.90;10.60;98924;;;;578788;245;23986;-85
2022/09/18 05:34:28;;;;;;;3.87;3.43;;;11.20;99.90;10.70;98909;;;;578767;245;24002;-83
2022/09/18 05:36:55;;;;;;;4.20;3.80;;;11.30;99.90;10.80;98917;;;;579342;244;24046;-85
2022/09/18 05:39:25;;;;;;;6.20;3.33;;;11.40;99.90;10.90;98914;;;;580036;244;23931;-85
2022/09/18 05:41:53;;;;;;;8.00;3.60;;;11.50;99.90;11.00;98908;;;;579952;245;24031;-84
2022/09/18 05:44:21;;;;;;;8.13;4.20;;;11.50;99.90;11.00;98916;;;;579821;245;24038;-83
2022/09/18 05:46:49;;;;;;;5.20;4.13;;;11.60;99.90;11.10;98917;;;;583829;245;24015;-84
2022/09/18 05:49:17;;;;;;;6.10;5.47;;;11.70;99.90;11.30;98912;;;;574503;245;34287;-84
2022/09/18 05:51:45;;;;;;;4.63;4.17;;;11.80;99.90;11.50;98919;;;;579906;245;23978;-85
2022/09/18 05:54:13;;;;;;;5.10;3.97;;;12.00;99.90;11.70;98919;;;;579447;245;24018;-85
2022/09/18 05:56:40;;;;;;;5.97;3.93;;;12.20;99.90;11.80;98924;;;;579505;244;24097;-84
2022/09/18 05:59:08;;;;;;;3.63;3.33;;;12.40;99.90;11.80;98928;;;;579769;244;24014;-83
2022/09/18 06:01:36;;;;;;;4.77;3.00;;;12.50;99.90;12.00;98917;;;;579042;241;23991;-82
2022/09/18 06:04:05;;;;;;;3.40;3.10;;;12.80;99.90;12.30;98915;;;;578296;245;23968;-81
2022/09/18 06:06:35;;;;;;;7.30;3.37;;;12.80;99.90;12.60;98921;;;;578492;245;23991;-84
2022/09/18 06:09:01;;;;;;;3.87;3.33;;;13.10;99.90;12.80;98922;;;;578205;245;23993;-84
2022/09/18 06:11:31;;;;;;;3.83;3.20;;;13.30;99.90;13.10;98930;;;;578471;245;23976;-83
2022/09/18 06:13:57;;;;;;;2.73;2.53;;;13.60;99.90;13.30;98931;;;;574051;245;23995;-84
2022/09/18 06:16:24;;;;;;;4.40;3.20;;;13.80;99.90;13.40;98932;;;;586758;245;23984;-83
2022/09/18 06:18:52;;;;;;;5.30;2.93;;;14.00;99.90;13.30;98929;;;;566252;249;25237;-85
2022/09/18 06:21:20;;;;;;;2.63;2.43;;;14.00;99.90;13.20;98931;;;;578167;244;23961;-84
2022/09/18 06:23:48;;;;;;;3.50;2.63;;;13.90;99.90;13.20;98927;;;;579527;244;24026;-85
2022/09/18 06:26:16;;;;;;;2.90;2.60;;;13.90;99.90;13.20;98926;;;;579550;244;24021;-86
2022/09/18 06:28:44;;;;;;;2.90;2.60;;;13.80;99.90;13.20;98924;;;;579249;244;23972;-86
2022/09/18 06:31:13;;;;;;;2.57;2.37;;;13.70;99.90;13.10;98926;;;;579117;244;23980;-83
2022/09/18 06:33:41;;;;;;;5.17;2.47;;;13.70;99.90;13.00;98924;;;;578681;245;24051;-84
2022/09/18 06:36:13;;;;;;;2.70;2.40;;;13.60;99.90;13.00;98936;;;;578881;245;24008;-83
2022/09/18 06:38:40;;;;;;;3.93;2.90;;;13.60;99.90;13.10;98927;;;;578788;245;24029;-85
2022/09/18 06:41:08;;;;;;;3.20;2.87;;;13.60;99.90;13.20;98924;;;;578902;245;23982;-86
2022/09/18 06:43:36;;;;;;;3.47;2.60;;;13.70;99.90;13.20;98925;;;;578534;245;24108;-85
2022/09/18 06:46:08;;;;;;;5.23;2.63;;;13.80;99.90;13.30;98925;;;;577924;245;24032;-85
2022/09/18 06:48:32;;;;;;;3.90;2.50;;;13.80;99.90;13.40;98922;;;;578445;245;23999;-86
2022/09/18 06:51:00;;;;;;;2.63;2.43;;;13.90;99.90;13.40;98927;;;;575189;244;24024;-84
2022/09/18 06:53:28;;;;;;;3.37;2.73;;;13.90;99.90;13.50;98917;;;;573439;241;24086;-84
2022/09/18 06:56:02;;;;;;;9.63;3.50;;;14.00;99.90;13.60;98917;;;;574849;241;24028;-84
2022/09/18 06:58:27;;;;;;;3.00;2.70;;;14.10;99.90;13.90;98919;;;;587967;239;24050;-85
2022/09/18 07:00:55;;;;;;;2.70;2.50;;;14.30;99.90;14.20;98915;;;;583242;245;24095;-83
2022/09/18 07:03:22;;;;;;;3.47;2.50;;;14.60;99.90;14.60;98913;;;;574271;244;24064;-84
2022/09/18 07:05:50;;;;;;;2.57;2.37;;;15.00;99.90;15.00;98917;;;;575415;241;24034;-84
2022/09/18 07:08:19;;;;;;;2.90;2.57;;;15.70;99.90;15.20;98914;;;;579676;245;24021;-84
2022/09/18 07:10:51;;;;;;;2.50;2.07;;;15.60;99.90;15.50;98919;;;;578411;245;25114;-85
2022/09/18 07:13:15;;;;;;;4.90;2.40;;;15.90;99.90;15.50;98918;;;;572217;248;24075;-85
2022/09/18 07:15:43;;;;;;;2.80;2.60;;;16.00;99.90;15.70;98914;;;;577083;244;24001;-84
2022/09/18 07:18:14;;;;;;;2.10;2.00;;;16.10;99.90;15.80;98914;;;;569521;247;24229;-84
2022/09/18 07:20:39;;;;;;;2.53;2.40;;;16.30;99.90;16.10;98912;;;;558855;253;24131;-85
2022/09/18 07:23:06;;;;;;;1.80;1.70;;;16.50;99.90;16.40;98915;;;;575810;245;24041;-85
2022/09/18 07:25:34;;;;;;;1.77;1.67;;;16.80;99.90;16.60;98921;;;;578925;244;23988;-84
2022/09/18 07:28:03;;;;;;;1.77;1.67;;;17.10;99.90;16.70;98914;;;;575723;249;25049;-86
2022/09/18 07:30:34;;;;;;;2.30;1.93;;;17.10;99.90;16.80;98913;;;;577163;247;24013;-85
2022/09/18 07:32:59;;;;;;;2.13;2.03;;;17.30;99.90;17.00;98916;;;;577013;249;24055;-86
2022/09/18 07:35:30;;;;;;;8.87;7.30;;;17.40;99.90;17.10;98918;;;;579277;246;24002;-85
2022/09/18 07:38:04;;;;;;;2.20;2.10;;;17.60;99.90;17.30;98918;;;;570225;249;24023;-86
2022/09/18 07:40:34;;;;;;;1.90;1.80;;;17.70;99.90;17.20;98922;;;;577838;248;24044;-85
2022/09/18 07:43:02;;;;;;;2.10;1.90;;;17.80;99.90;17.30;98921;;;;578689;248;24023;-87
2022/09/18 07:45:27;;;;;;;3.40;2.43;;;17.80;99.90;17.20;98918;;;;575152;244;24090;-85
2022/09/18 07:47:58;;;;;;;2.17;1.80;;;17.70;99.90;17.20;98919;;;;565853;249;24066;-87
2022/09/18 07:50:27;;;;;;;1.70;1.60;;;17.70;99.90;17.30;98919;;;;571325;249;25249;-86
2022/09/18 07:52:54;;;;;;;2.33;2.13;;;17.80;99.90;17.40;98923;;;;576068;243;24065;-85
2022/09/18 07:55:25;;;;;;;1.73;1.63;;;17.80;99.90;17.40;98926;;;;572258;247;24095;-86
2022/09/18 07:57:57;;;;;;;2.33;2.03;;;17.90;99.90;17.50;98920;;;;571691;247;24090;-84
2022/09/18 08:00:30;;;;;;;1.83;1.73;;;17.90;99.90;17.60;98933;;;;569937;246;24076;-86
2022/09/18 08:03:07;;;;;;;1.77;1.67;;;18.00;99.90;17.80;98931;;;;575960;246;24134;-85
2022/09/18 08:05:35;;;;;;;1.80;1.67;;;18.20;99.90;17.90;98937;;;;570541;249;24056;-85
2022/09/18 08:08:08;;;;;;;1.67;1.57;;;18.30;99.90;18.00;98938;;;;565449;246;24110;-83
2022/09/18 08:10:33;;;;;;;1.93;1.83;;;18.40;99.90;18.10;98940;;;;571008;247;24154;-85
2022/09/18 08:13:02;;;;;;;2.20;2.00;;;18.50;99.90;18.40;98935;;;;571171;249;24085;-85
2022/09/18 08:15:34;;;;;;;3.63;2.10;;;18.80;99.90;18.60;98935;;;;584343;239;24068;-85
2022/09/18 08:18:01;;;;;;;2.03;1.93;;;19.00;99.90;18.90;98944;;;;570944;249;24098;-83
2022/09/18 08:20:29;;;;;;;3.05;1.90;;;19.20;99.90;19.30;98943;;;;579515;240;35074;-85
2022/09/18 08:22:54;;;;;;;1.90;1.67;;;19.60;99.90;19.40;98950;;;;574984;244;23100;-86
2022/09/18 08:25:22;;;;;;;2.83;2.10;;;19.70;99.90;19.50;98948;;;;571158;246;24334;-87
2022/09/18 08:27:50;;;;;;;3.20;2.30;;;19.90;99.90;19.70;98956;;;;567531;245;24006;-87
2022/09/18 08:30:21;;;;;;;2.40;2.20;;;20.50;99.90;20.20;98959;;;;564784;245;35207;-86
2022/09/18 08:32:46;;;;;;;2.50;2.30;;;20.50;99.90;20.30;98955;;;;573835;244;23991;-86
2022/09/18 08:35:18;;;;;;;5.17;2.00;;;20.70;99.90;20.60;98957;;;;582831;243;23028;-85
2022/09/18 08:37:48;;;;;;;1.93;1.83;;;21.10;99.90;21.10;98963;;;;567390;244;24172;-85
2022/09/18 08:40:19;;;;;;;1.73;1.60;;;21.50;99.90;21.50;98961;;;;556426;255;24100;-83
2022/09/18 08:43:08;;;;;;;2.13;1.93;;;21.90;99.90;21.50;98963;;;;575603;244;24001;-84
2022/09/18 08:45:48;;;;;;;1.80;1.70;;;22.00;99.90;21.70;98956;;;;583369;242;24083;-85
2022/09/18 08:48:16;;;;;;;2.00;1.80;;;22.40;99.90;21.90;98963;;;;583313;240;24037;-85
2022/09/18 08:50:44;;;;;;;3.73;3.43;;;22.40;99.90;22.20;98964;;;;584203;241;24121;-85
2022/09/18 08:53:18;;;;;;;4.07;2.13;;;22.70;99.90;22.60;98972;;;;583726;241;24041;-84
2022/09/18 08:55:46;;;;;;;1.50;1.43;;;23.10;99.90;22.80;98968;;;;584849;240;24027;-85
2022/09/18 08:58:14;;;;;;;1.60;1.47;;;23.40;99.90;22.90;98973;;;;583234;240;24089;-84
2022/09/18 09:00:47;;;;;;;2.47;1.40;;;23.50;99.90;22.90;98976;;;;583039;240;24082;-84
2022/09/18 09:03:30;;;;;;;2.67;1.70;;;23.50;99.90;22.90;98972;;;;582755;240;24033;-85
2022/09/18 09:06:32;;;;;;;1.77;1.67;;;23.50;99.90;22.90;98973;;;;586325;239;24045;-85
2022/09/18 09:09:06;;;;;;;2.13;1.93;;;23.50;99.90;22.90;98974;;;;585015;242;24072;-85
2022/09/18 09:11:58;;;;;;;1.87;1.77;;;23.40;99.90;22.90;98978;;;;574314;246;24120;-84
2022/09/18 09:14:50;;;;;;;2.30;1.67;;;23.40;99.90;22.60;98981;;;;594623;240;24044;-86
2022/09/18 09:17:46;;;;;;;1.67;1.57;;;23.20;99.90;22.10;98980;;;;586896;240;24055;-85
2022/09/18 09:20:20;;;;;;;2.07;1.87;;;22.10;99.90;21.40;98987;;;;589831;239;24084;-85
2022/09/18 09:23:03;;;;;;;2.40;1.53;;;22.10;99.90;21.30;98991;;;;586309;239;24081;-85
2022/09/18 09:25:55;;;;;;;1.63;1.53;;;21.90;99.90;21.10;98987;;;;586475;239;24066;-85
2022/09/18 09:28:44;;;;;;;1.57;1.57;;;21.70;99.90;21.10;98984;;;;587396;240;24079;-86
2022/09/18 09:31:12;;;;;;;3.17;1.63;;;21.60;99.90;21.20;98985;;;;582674;240;24061;-85
2022/09/18 09:33:40;;;;;;;2.13;1.50;;;21.70;99.90;21.40;98986;;;;583335;240;24079;-85
2022/09/18 09:36:08;;;;;;;1.67;1.57;;;21.90;99.90;21.70;98984;;;;582580;240;24079;-85
2022/09/18 09:38:45;;;;;;;1.73;1.63;;;22.10;99.90;21.70;98987;;;;582936;240;24036;-84
2022/09/18 09:41:33;;;;;;;2.43;1.70;;;22.30;99.90;21.90;98992;;;;583360;240;24072;-85
2022/09/18 09:44:36;;;;;;;2.10;1.80;;;22.40;99.90;22.00;98997;;;;583630;240;24057;-85
2022/09/18 09:47:16;;;;;;;1.97;1.60;;;22.60;99.90;22.10;99001;;;;575064;239;24161;-77
2022/09/18 09:50:02;;;;;;;2.47;1.90;;;22.70;99.90;22.10;98998;;;;571429;249;24124;-77
2022/09/18 09:52:30;;;;;;;1.50;1.40;;;22.80;99.90;22.10;99000;;;;571439;243;24091;-76
2022/09/18 09:55:06;;;;;;;1.70;1.40;;;22.70;99.90;22.00;99004;;;;573166;248;24079;-76
2022/09/18 09:57:34;;;;;;;1.50;1.40;;;22.60;99.90;22.00;99005;;;;576464;245;24171;-78
2022/09/18 10:00:03;;;;;;;2.27;1.50;;;22.60;99.70;21.90;99002;;;;578048;247;24223;-76
2022/09/18 10:02:42;;;;;;;1.97;1.87;;;22.60;99.90;21.90;99005;;;;577741;244;24077;-78
2022/09/18 10:05:13;;;;;;;1.30;1.20;;;22.50;99.90;21.90;99005;;;;578565;240;24079;-77
2022/09/18 10:07:47;;;;;;;1.60;1.47;;;22.80;99.90;22.20;99008;;;;585098;241;24098;-81
2022/09/18 10:10:27;;;;;;;3.10;1.53;;;22.80;99.90;22.30;99015;;;;585576;241;24052;-77
2022/09/18 10:12:55;;;;;;;1.73;1.47;;;22.90;99.10;22.00;99009;;;;585755;241;24082;-80
2022/09/18 10:15:29;;;;;;;2.73;1.17;;;22.60;99.40;22.00;99017;;;;586624;239;24082;-78
2022/09/18 10:17:57;;;;;;;1.90;1.30;;;22.60;99.40;22.10;99022;;;;593868;242;23124;-77
2022/09/18 10:20:28;;;;;;;1.30;1.20;;;22.70;99.40;22.00;99021;;;;585957;242;24096;-77
2022/09/18 10:22:56;;;;;;;2.60;1.50;;;22.70;98.60;21.80;99020;;;;584798;242;24052;-77
2022/09/18 10:25:39;;;;;;;1.20;1.10;;;22.30;99.30;21.70;99016;;;;592877;241;24163;-76
2022/09/18 10:28:14;;;;;;;2.77;1.20;;;22.20;99.20;21.50;99022;;;;579685;244;24075;-77
2022/09/18 10:31:00;;;;;;;2.53;1.57;;;22.00;99.60;21.30;99019;;;;588308;244;24058;-77
2022/09/18 10:33:31;;;;;;;1.50;1.40;;;21.80;99.90;21.30;99019;;;;585931;244;23074;-77
2022/09/18 10:36:20;;;;;;;1.30;1.20;;;21.70;99.90;21.20;99021;;;;580334;244;24068;-78
2022/09/18 10:38:50;;;;;;;1.73;1.50;;;21.70;99.90;21.30;99023;;;;592439;240;24082;-78
2022/09/18 10:41:30;;;;;;;1.10;1.10;;;21.70;99.90;21.40;99027;;;;584674;242;24116;-79
2022/09/18 10:44:14;;;;;;;1.53;1.20;;;21.70;99.90;21.30;99018;;;;594933;239;23106;-77
2022/09/18 10:47:05;;;;;;;2.03;1.37;;;21.70;99.90;21.10;99019;;;;593788;242;24002;-78
2022/09/18 10:49:55;;;;;;;1.37;1.30;;;21.60;99.90;21.00;99015;;;;595972;241;24108;-77
2022/09/18 10:52:43;;;;;;;1.67;1.37;;;21.50;99.90;20.90;99018;;;;576339;245;24042;-80
2022/09/18 10:55:29;;;;;;;1.23;1.00;;;21.40;99.90;21.00;99010;;;;589286;244;24062;-78
2022/09/18 10:57:57;;;;;;;1.00;1.00;;;21.40;99.90;20.90;99016;;;;579092;244;24059;-76
2022/09/18 11:00:26;;;;;;;1.00;1.00;;;21.30;99.90;20.80;99022;;;;593768;242;24131;-75
2022/09/18 11:03:17;;;;;;;1.43;0.90;;;21.20;99.90;20.60;99019;;;;581825;244;24071;-76
2022/09/18 11:05:53;;;;;;;1.73;1.33;;;21.10;99.90;20.40;99028;;;;582806;242;23127;-77
2022/09/18 11:08:21;;;;;;;1.00;1.00;;;20.90;99.90;20.20;99023;;;;595161;239;24104;-77
2022/09/18 11:10:52;;;;;;;0.93;0.90;;;20.70;99.90;20.20;99025;;;;587502;241;24068;-77
2022/09/18 11:13:23;;;;;;;1.33;1.17;;;20.60;99.90;20.20;99022;;;;595335;240;24079;-78
2022/09/18 11:15:52;;;;;;;1.10;1.00;;;20.70;99.90;20.20;99024;;;;585645;241;24044;-78
2022/09/18 11:18:22;;;;;;;1.30;1.20;;;20.60;99.90;20.20;99026;;;;585195;242;24074;-76
2022/09/18 11:20:47;;;;;;;2.20;1.00;;;20.60;99.90;20.20;99021;;;;585278;242;24086;-79
2022/09/18 11:23:22;;;;;;;0.80;0.80;;;20.50;99.90;20.10;99014;;;;594665;241;24092;-77
2022/09/18 11:25:50;;;;;;;0.83;0.83;;;20.50;99.90;20.10;99012;;;;595620;239;24093;-77
2022/09/18 11:28:27;;;;;;;1.03;1.03;;;20.50;99.90;20.10;99012;;;;587698;239;24135;-76
2022/09/18 11:31:01;;;;;;;1.47;1.00;;;20.60;99.90;20.20;99010;;;;579089;244;24071;-77
2022/09/18 11:33:33;;;;;;;0.50;0.50;;;20.80;99.90;20.40;99010;;;;589043;244;24082;-76
2022/09/18 11:36:04;;;;;;;0.70;0.70;;;20.80;99.90;20.40;99003;;;;580031;244;24133;-76
2022/09/18 11:38:32;;;;;;;0.70;0.70;;;20.80;99.90;20.50;99001;;;;580127;244;24077;-77
2022/09/18 11:41:03;;;;;;;0.67;0.47;;;20.90;99.90;20.40;99002;;;;589039;244;24105;-77